RJTH(METAR)
12/10 17:00
RJTH 100800Z 05007KT 9999 RA FEW007 SCT020 BKN050 13/13 Q1024 RMK
A3025=
戻る
トップページへ戻る
IMOC Co,.Ltd.